sensor_id;sensor_type;location;lat;lon;timestamp;temperature;humidity
18932;DHT22;9598;50.954;3.112;2023-08-17T00:00:13;21.00;99.90
18932;DHT22;9598;50.954;3.112;2023-08-17T00:05:15;21.00;99.90
18932;DHT22;9598;50.954;3.112;2023-08-17T00:10:19;21.00;99.90
18932;DHT22;9598;50.954;3.112;2023-08-17T00:15:21;21.00;99.90
18932;DHT22;9598;50.954;3.112;2023-08-17T00:20:23;20.90;99.90
18932;DHT22;9598;50.954;3.112;2023-08-17T00:25:26;20.90;99.90
18932;DHT22;9598;50.954;3.112;2023-08-17T00:30:28;20.80;99.90
18932;DHT22;9598;50.954;3.112;2023-08-17T00:35:30;20.70;99.90
18932;DHT22;9598;50.954;3.112;2023-08-17T00:40:34;20.70;99.90
18932;DHT22;9598;50.954;3.112;2023-08-17T00:45:36;20.70;99.90
18932;DHT22;9598;50.954;3.112;2023-08-17T00:50:39;20.70;99.90
18932;DHT22;9598;50.954;3.112;2023-08-17T00:55:44;20.60;99.90
18932;DHT22;9598;50.954;3.112;2023-08-17T01:00:47;20.60;99.90
18932;DHT22;9598;50.954;3.112;2023-08-17T01:05:49;20.40;99.90
18932;DHT22;9598;50.954;3.112;2023-08-17T01:10:57;20.30;99.90
18932;DHT22;9598;50.954;3.112;2023-08-17T01:16:03;20.20;99.90
18932;DHT22;9598;50.954;3.112;2023-08-17T01:21:10;20.20;99.90
18932;DHT22;9598;50.954;3.112;2023-08-17T01:26:17;20.10;99.90
18932;DHT22;9598;50.954;3.112;2023-08-17T01:31:21;20.10;99.90
18932;DHT22;9598;50.954;3.112;2023-08-17T01:36:31;20.00;99.90
18932;DHT22;9598;50.954;3.112;2023-08-17T01:41:36;19.90;99.90
18932;DHT22;9598;50.954;3.112;2023-08-17T01:46:39;19.90;99.90
18932;DHT22;9598;50.954;3.112;2023-08-17T01:51:42;19.90;99.90
18932;DHT22;9598;50.954;3.112;2023-08-17T01:56:46;19.80;99.90
18932;DHT22;9598;50.954;3.112;2023-08-17T02:01:48;19.90;99.90
18932;DHT22;9598;50.954;3.112;2023-08-17T02:06:50;19.90;99.90
18932;DHT22;9598;50.954;3.112;2023-08-17T02:11:54;19.90;99.90
18932;DHT22;9598;50.954;3.112;2023-08-17T02:16:57;19.80;99.90
18932;DHT22;9598;50.954;3.112;2023-08-17T02:21:59;19.80;99.90
18932;DHT22;9598;50.954;3.112;2023-08-17T02:27:03;19.80;99.90
18932;DHT22;9598;50.954;3.112;2023-08-17T02:32:05;19.70;99.90
18932;DHT22;9598;50.954;3.112;2023-08-17T02:37:07;19.60;99.90
18932;DHT22;9598;50.954;3.112;2023-08-17T02:42:10;19.60;99.90
18932;DHT22;9598;50.954;3.112;2023-08-17T02:47:12;19.60;99.90
18932;DHT22;9598;50.954;3.112;2023-08-17T02:52:14;19.50;99.90
18932;DHT22;9598;50.954;3.112;2023-08-17T02:57:19;19.50;99.90
18932;DHT22;9598;50.954;3.112;2023-08-17T03:02:21;19.40;99.90
18932;DHT22;9598;50.954;3.112;2023-08-17T03:07:23;19.40;99.90
18932;DHT22;9598;50.954;3.112;2023-08-17T03:12:26;19.40;99.90
18932;DHT22;9598;50.954;3.112;2023-08-17T03:17:28;19.40;99.90
18932;DHT22;9598;50.954;3.112;2023-08-17T03:22:30;19.30;99.90
18932;DHT22;9598;50.954;3.112;2023-08-17T03:27:34;19.20;99.90
18932;DHT22;9598;50.954;3.112;2023-08-17T03:32:37;19.20;99.90
18932;DHT22;9598;50.954;3.112;2023-08-17T03:37:40;19.20;99.90
18932;DHT22;9598;50.954;3.112;2023-08-17T03:42:44;19.30;99.90
18932;DHT22;9598;50.954;3.112;2023-08-17T03:47:47;19.20;99.90
18932;DHT22;9598;50.954;3.112;2023-08-17T03:52:49;19.20;99.90
18932;DHT22;9598;50.954;3.112;2023-08-17T03:57:52;19.30;99.90
18932;DHT22;9598;50.954;3.112;2023-08-17T04:02:55;19.20;99.90
18932;DHT22;9598;50.954;3.112;2023-08-17T04:07:58;19.30;99.90
18932;DHT22;9598;50.954;3.112;2023-08-17T04:13:03;19.20;99.90
18932;DHT22;9598;50.954;3.112;2023-08-17T04:18:05;19.20;99.90
18932;DHT22;9598;50.954;3.112;2023-08-17T04:23:08;19.20;99.90
18932;DHT22;9598;50.954;3.112;2023-08-17T04:28:12;19.10;99.90
18932;DHT22;9598;50.954;3.112;2023-08-17T04:33:14;19.10;99.90
18932;DHT22;9598;50.954;3.112;2023-08-17T04:38:17;19.10;99.90
18932;DHT22;9598;50.954;3.112;2023-08-17T04:43:21;19.10;99.90
18932;DHT22;9598;50.954;3.112;2023-08-17T04:48:23;19.10;99.90
18932;DHT22;9598;50.954;3.112;2023-08-17T04:53:25;19.10;99.90
18932;DHT22;9598;50.954;3.112;2023-08-17T04:58:29;19.00;99.90
18932;DHT22;9598;50.954;3.112;2023-08-17T05:03:32;19.00;99.90
18932;DHT22;9598;50.954;3.112;2023-08-17T05:08:35;19.00;99.90
18932;DHT22;9598;50.954;3.112;2023-08-17T05:13:38;18.90;99.90
18932;DHT22;9598;50.954;3.112;2023-08-17T05:18:40;18.90;99.90
18932;DHT22;9598;50.954;3.112;2023-08-17T05:23:44;18.80;99.90
18932;DHT22;9598;50.954;3.112;2023-08-17T05:28:48;18.80;99.90
18932;DHT22;9598;50.954;3.112;2023-08-17T05:33:50;18.80;99.90
18932;DHT22;9598;50.954;3.112;2023-08-17T05:38:53;18.70;99.90
18932;DHT22;9598;50.954;3.112;2023-08-17T05:43:57;18.70;99.90
18932;DHT22;9598;50.954;3.112;2023-08-17T05:48:59;18.80;99.90
18932;DHT22;9598;50.954;3.112;2023-08-17T05:54:01;18.80;99.90
18932;DHT22;9598;50.954;3.112;2023-08-17T05:59:05;18.80;99.90
18932;DHT22;9598;50.954;3.112;2023-08-17T06:04:07;18.90;99.90
18932;DHT22;9598;50.954;3.112;2023-08-17T06:09:09;18.90;99.90
18932;DHT22;9598;50.954;3.112;2023-08-17T06:14:12;18.90;99.90
18932;DHT22;9598;50.954;3.112;2023-08-17T06:19:14;18.90;99.90
18932;DHT22;9598;50.954;3.112;2023-08-17T06:24:16;19.00;99.90
18932;DHT22;9598;50.954;3.112;2023-08-17T06:29:20;19.10;99.90
18932;DHT22;9598;50.954;3.112;2023-08-17T06:34:22;19.20;99.90
18932;DHT22;9598;50.954;3.112;2023-08-17T06:39:24;19.20;99.90
18932;DHT22;9598;50.954;3.112;2023-08-17T06:44:27;19.20;99.90
18932;DHT22;9598;50.954;3.112;2023-08-17T06:49:31;19.30;99.90
18932;DHT22;9598;50.954;3.112;2023-08-17T06:54:33;19.40;99.90
18932;DHT22;9598;50.954;3.112;2023-08-17T06:59:37;19.60;99.90
18932;DHT22;9598;50.954;3.112;2023-08-17T07:04:39;19.70;99.90
18932;DHT22;9598;50.954;3.112;2023-08-17T07:09:41;19.90;99.90
18932;DHT22;9598;50.954;3.112;2023-08-17T07:14:44;20.00;99.90
18932;DHT22;9598;50.954;3.112;2023-08-17T07:19:47;20.10;99.90
18932;DHT22;9598;50.954;3.112;2023-08-17T07:24:48;20.20;99.90
18932;DHT22;9598;50.954;3.112;2023-08-17T07:29:52;20.30;99.90
18932;DHT22;9598;50.954;3.112;2023-08-17T07:34:54;20.40;99.90
18932;DHT22;9598;50.954;3.112;2023-08-17T07:39:56;20.40;99.90
18932;DHT22;9598;50.954;3.112;2023-08-17T07:45:00;20.60;99.90
18932;DHT22;9598;50.954;3.112;2023-08-17T07:50:06;20.70;99.90
18932;DHT22;9598;50.954;3.112;2023-08-17T07:55:08;20.80;99.90
18932;DHT22;9598;50.954;3.112;2023-08-17T08:00:12;21.00;99.90
18932;DHT22;9598;50.954;3.112;2023-08-17T08:05:15;21.10;99.90
18932;DHT22;9598;50.954;3.112;2023-08-17T08:10:17;21.20;99.90
18932;DHT22;9598;50.954;3.112;2023-08-17T08:15:20;21.30;99.90
18932;DHT22;9598;50.954;3.112;2023-08-17T08:20:22;21.40;99.90
18932;DHT22;9598;50.954;3.112;2023-08-17T08:25:25;21.60;99.90
18932;DHT22;9598;50.954;3.112;2023-08-17T08:30:28;21.80;99.90
18932;DHT22;9598;50.954;3.112;2023-08-17T08:35:31;21.90;99.90
18932;DHT22;9598;50.954;3.112;2023-08-17T08:40:37;21.80;99.90
18932;DHT22;9598;50.954;3.112;2023-08-17T08:45:41;22.00;99.90
18932;DHT22;9598;50.954;3.112;2023-08-17T08:50:45;22.10;99.90
18932;DHT22;9598;50.954;3.112;2023-08-17T08:55:52;22.30;99.90
18932;DHT22;9598;50.954;3.112;2023-08-17T09:00:58;22.40;99.90
18932;DHT22;9598;50.954;3.112;2023-08-17T09:06:00;22.50;99.90
18932;DHT22;9598;50.954;3.112;2023-08-17T09:11:02;22.70;99.90
18932;DHT22;9598;50.954;3.112;2023-08-17T09:16:06;22.80;99.90
18932;DHT22;9598;50.954;3.112;2023-08-17T09:21:08;22.70;99.90
18932;DHT22;9598;50.954;3.112;2023-08-17T09:26:10;22.70;99.90
18932;DHT22;9598;50.954;3.112;2023-08-17T09:31:13;22.70;99.90
18932;DHT22;9598;50.954;3.112;2023-08-17T09:36:19;22.70;99.90
18932;DHT22;9598;50.954;3.112;2023-08-17T09:41:22;22.70;99.90
18932;DHT22;9598;50.954;3.112;2023-08-17T09:46:25;22.80;99.90
18932;DHT22;9598;50.954;3.112;2023-08-17T09:51:29;22.70;99.90
18932;DHT22;9598;50.954;3.112;2023-08-17T09:56:32;22.60;99.90
18932;DHT22;9598;50.954;3.112;2023-08-17T10:01:35;22.70;99.90
18932;DHT22;9598;50.954;3.112;2023-08-17T10:06:39;22.80;99.90
18932;DHT22;9598;50.954;3.112;2023-08-17T10:11:44;23.00;99.90
18932;DHT22;9598;50.954;3.112;2023-08-17T10:16:53;23.20;99.90
18932;DHT22;9598;50.954;3.112;2023-08-17T10:22:03;23.40;99.90
18932;DHT22;9598;50.954;3.112;2023-08-17T10:27:10;23.40;99.90
18932;DHT22;9598;50.954;3.112;2023-08-17T10:32:15;23.50;99.90
18932;DHT22;9598;50.954;3.112;2023-08-17T10:37:18;23.50;99.90
18932;DHT22;9598;50.954;3.112;2023-08-17T10:42:30;23.50;99.90
18932;DHT22;9598;50.954;3.112;2023-08-17T10:47:35;23.60;99.90
18932;DHT22;9598;50.954;3.112;2023-08-17T10:52:37;23.60;99.90
18932;DHT22;9598;50.954;3.112;2023-08-17T10:57:40;23.70;99.90
18932;DHT22;9598;50.954;3.112;2023-08-17T11:02:45;23.90;99.90
18932;DHT22;9598;50.954;3.112;2023-08-17T11:07:47;24.00;99.90
18932;DHT22;9598;50.954;3.112;2023-08-17T11:12:49;24.10;99.90
18932;DHT22;9598;50.954;3.112;2023-08-17T11:17:52;24.10;99.90
18932;DHT22;9598;50.954;3.112;2023-08-17T11:22:55;24.00;99.90
18932;DHT22;9598;50.954;3.112;2023-08-17T11:27:59;24.00;99.90
18932;DHT22;9598;50.954;3.112;2023-08-17T11:33:03;24.00;99.90
18932;DHT22;9598;50.954;3.112;2023-08-17T11:38:06;24.00;99.90
18932;DHT22;9598;50.954;3.112;2023-08-17T11:43:08;24.00;99.90
18932;DHT22;9598;50.954;3.112;2023-08-17T11:48:12;24.10;99.90
18932;DHT22;9598;50.954;3.112;2023-08-17T11:53:17;24.10;99.90
18932;DHT22;9598;50.954;3.112;2023-08-17T11:58:19;24.10;99.90
18932;DHT22;9598;50.954;3.112;2023-08-17T12:03:39;24.30;99.90
18932;DHT22;9598;50.954;3.112;2023-08-17T12:08:44;24.30;99.90
18932;DHT22;9598;50.954;3.112;2023-08-17T12:13:49;24.30;99.90
18932;DHT22;9598;50.954;3.112;2023-08-17T12:18:53;24.30;99.90
18932;DHT22;9598;50.954;3.112;2023-08-17T12:23:55;24.30;99.90
18932;DHT22;9598;50.954;3.112;2023-08-17T12:28:57;24.40;99.90
18932;DHT22;9598;50.954;3.112;2023-08-17T12:34:01;24.40;99.90
18932;DHT22;9598;50.954;3.112;2023-08-17T12:39:04;24.40;99.90
18932;DHT22;9598;50.954;3.112;2023-08-17T12:44:08;24.40;99.90
18932;DHT22;9598;50.954;3.112;2023-08-17T12:49:14;24.40;99.90
18932;DHT22;9598;50.954;3.112;2023-08-17T12:54:16;24.30;99.90
18932;DHT22;9598;50.954;3.112;2023-08-17T12:59:18;24.40;99.90
18932;DHT22;9598;50.954;3.112;2023-08-17T13:04:21;24.40;99.90
18932;DHT22;9598;50.954;3.112;2023-08-17T13:09:23;24.50;99.90
18932;DHT22;9598;50.954;3.112;2023-08-17T13:14:26;24.40;99.90
18932;DHT22;9598;50.954;3.112;2023-08-17T13:19:29;24.40;99.90
18932;DHT22;9598;50.954;3.112;2023-08-17T13:24:31;24.40;99.90
18932;DHT22;9598;50.954;3.112;2023-08-17T13:29:33;24.40;99.90
18932;DHT22;9598;50.954;3.112;2023-08-17T13:34:37;24.30;99.90
18932;DHT22;9598;50.954;3.112;2023-08-17T13:39:39;24.30;99.90
18932;DHT22;9598;50.954;3.112;2023-08-17T13:44:41;24.30;99.90
18932;DHT22;9598;50.954;3.112;2023-08-17T13:49:45;24.20;99.90
18932;DHT22;9598;50.954;3.112;2023-08-17T13:54:47;24.30;99.90
18932;DHT22;9598;50.954;3.112;2023-08-17T13:59:50;24.30;99.90
18932;DHT22;9598;50.954;3.112;2023-08-17T14:04:54;24.30;99.90
18932;DHT22;9598;50.954;3.112;2023-08-17T14:09:56;24.30;99.90
18932;DHT22;9598;50.954;3.112;2023-08-17T14:14:58;24.30;99.90
18932;DHT22;9598;50.954;3.112;2023-08-17T14:20:02;24.20;99.90
18932;DHT22;9598;50.954;3.112;2023-08-17T14:25:06;24.20;99.90
18932;DHT22;9598;50.954;3.112;2023-08-17T14:30:08;24.20;99.90
18932;DHT22;9598;50.954;3.112;2023-08-17T14:35:11;24.20;99.90
18932;DHT22;9598;50.954;3.112;2023-08-17T14:40:13;24.20;99.90
18932;DHT22;9598;50.954;3.112;2023-08-17T14:45:16;24.20;99.90
18932;DHT22;9598;50.954;3.112;2023-08-17T14:50:19;24.20;99.90
18932;DHT22;9598;50.954;3.112;2023-08-17T14:55:21;24.20;99.90
18932;DHT22;9598;50.954;3.112;2023-08-17T15:00:23;24.20;99.90
18932;DHT22;9598;50.954;3.112;2023-08-17T15:05:27;24.30;99.90
18932;DHT22;9598;50.954;3.112;2023-08-17T15:10:29;24.30;99.90
18932;DHT22;9598;50.954;3.112;2023-08-17T15:15:33;24.30;99.90
18932;DHT22;9598;50.954;3.112;2023-08-17T15:20:36;24.40;99.90
18932;DHT22;9598;50.954;3.112;2023-08-17T15:25:38;24.40;99.90
18932;DHT22;9598;50.954;3.112;2023-08-17T15:30:40;24.40;99.90
18932;DHT22;9598;50.954;3.112;2023-08-17T15:35:44;24.40;99.90
18932;DHT22;9598;50.954;3.112;2023-08-17T15:40:46;24.40;99.90
18932;DHT22;9598;50.954;3.112;2023-08-17T15:45:51;24.40;99.90
18932;DHT22;9598;50.954;3.112;2023-08-17T15:50:55;24.40;99.90
18932;DHT22;9598;50.954;3.112;2023-08-17T15:55:57;24.30;99.90
18932;DHT22;9598;50.954;3.112;2023-08-17T16:00:59;24.30;99.90
18932;DHT22;9598;50.954;3.112;2023-08-17T16:06:02;24.30;99.90
18932;DHT22;9598;50.954;3.112;2023-08-17T16:11:04;24.30;99.90
18932;DHT22;9598;50.954;3.112;2023-08-17T16:16:06;24.30;99.90
18932;DHT22;9598;50.954;3.112;2023-08-17T16:21:10;24.20;99.90
18932;DHT22;9598;50.954;3.112;2023-08-17T16:26:12;24.20;99.90
18932;DHT22;9598;50.954;3.112;2023-08-17T16:31:14;24.10;99.90
18932;DHT22;9598;50.954;3.112;2023-08-17T16:36:17;24.10;99.90
18932;DHT22;9598;50.954;3.112;2023-08-17T16:41:19;24.00;99.90
18932;DHT22;9598;50.954;3.112;2023-08-17T16:46:21;24.00;99.90
18932;DHT22;9598;50.954;3.112;2023-08-17T16:51:25;24.00;99.90
18932;DHT22;9598;50.954;3.112;2023-08-17T16:56:27;23.90;99.90
18932;DHT22;9598;50.954;3.112;2023-08-17T17:01:29;23.90;99.90
18932;DHT22;9598;50.954;3.112;2023-08-17T17:06:33;23.80;99.90
18932;DHT22;9598;50.954;3.112;2023-08-17T17:11:35;23.80;99.90
18932;DHT22;9598;50.954;3.112;2023-08-17T17:16:37;23.80;99.90
18932;DHT22;9598;50.954;3.112;2023-08-17T17:21:41;23.70;99.90
18932;DHT22;9598;50.954;3.112;2023-08-17T17:26:43;23.70;99.90
18932;DHT22;9598;50.954;3.112;2023-08-17T17:31:45;23.60;99.90
18932;DHT22;9598;50.954;3.112;2023-08-17T17:36:48;23.60;99.90
18932;DHT22;9598;50.954;3.112;2023-08-17T17:41:50;23.60;99.90
18932;DHT22;9598;50.954;3.112;2023-08-17T17:46:52;23.60;99.90
18932;DHT22;9598;50.954;3.112;2023-08-17T17:51:56;23.50;99.90
18932;DHT22;9598;50.954;3.112;2023-08-17T17:56:58;23.50;99.90
18932;DHT22;9598;50.954;3.112;2023-08-17T18:02:00;23.50;99.90
18932;DHT22;9598;50.954;3.112;2023-08-17T18:07:04;23.50;99.90
18932;DHT22;9598;50.954;3.112;2023-08-17T18:12:06;23.40;99.90
18932;DHT22;9598;50.954;3.112;2023-08-17T18:17:08;23.40;99.90
18932;DHT22;9598;50.954;3.112;2023-08-17T18:22:12;23.50;99.90
18932;DHT22;9598;50.954;3.112;2023-08-17T18:27:14;23.30;99.90
18932;DHT22;9598;50.954;3.112;2023-08-17T18:32:16;23.30;99.90
18932;DHT22;9598;50.954;3.112;2023-08-17T18:37:20;23.20;99.90
18932;DHT22;9598;50.954;3.112;2023-08-17T18:42:22;23.10;99.90
18932;DHT22;9598;50.954;3.112;2023-08-17T18:47:24;23.10;99.90
18932;DHT22;9598;50.954;3.112;2023-08-17T18:52:27;23.00;99.90
18932;DHT22;9598;50.954;3.112;2023-08-17T18:57:30;23.00;99.90
18932;DHT22;9598;50.954;3.112;2023-08-17T19:02:33;23.00;99.90
18932;DHT22;9598;50.954;3.112;2023-08-17T19:07:37;22.90;99.90
18932;DHT22;9598;50.954;3.112;2023-08-17T19:12:39;22.80;99.90
18932;DHT22;9598;50.954;3.112;2023-08-17T19:17:42;22.90;99.90
18932;DHT22;9598;50.954;3.112;2023-08-17T19:22:46;22.80;99.90
18932;DHT22;9598;50.954;3.112;2023-08-17T19:27:48;22.80;99.90
18932;DHT22;9598;50.954;3.112;2023-08-17T19:32:56;22.70;99.90
18932;DHT22;9598;50.954;3.112;2023-08-17T19:38:00;22.70;99.90
18932;DHT22;9598;50.954;3.112;2023-08-17T19:43:05;22.70;99.90
18932;DHT22;9598;50.954;3.112;2023-08-17T19:48:09;22.60;99.90
18932;DHT22;9598;50.954;3.112;2023-08-17T19:53:13;22.50;99.90
18932;DHT22;9598;50.954;3.112;2023-08-17T19:58:18;22.50;99.90
18932;DHT22;9598;50.954;3.112;2023-08-17T20:03:20;22.40;99.90
18932;DHT22;9598;50.954;3.112;2023-08-17T20:08:26;22.40;99.90
18932;DHT22;9598;50.954;3.112;2023-08-17T20:13:28;22.40;99.90
18932;DHT22;9598;50.954;3.112;2023-08-17T20:18:30;22.40;99.90
18932;DHT22;9598;50.954;3.112;2023-08-17T20:23:33;22.30;99.90
18932;DHT22;9598;50.954;3.112;2023-08-17T20:28:35;22.30;99.90
18932;DHT22;9598;50.954;3.112;2023-08-17T20:33:38;22.30;99.90
18932;DHT22;9598;50.954;3.112;2023-08-17T20:38:42;22.30;99.90
18932;DHT22;9598;50.954;3.112;2023-08-17T20:43:44;22.30;99.90
18932;DHT22;9598;50.954;3.112;2023-08-17T20:48:46;22.30;99.90
18932;DHT22;9598;50.954;3.112;2023-08-17T20:53:51;22.30;99.90
18932;DHT22;9598;50.954;3.112;2023-08-17T20:58:54;22.30;99.90
18932;DHT22;9598;50.954;3.112;2023-08-17T21:03:56;22.20;99.90
18932;DHT22;9598;50.954;3.112;2023-08-17T21:08:59;22.20;99.90
18932;DHT22;9598;50.954;3.112;2023-08-17T21:14:02;22.20;99.90
18932;DHT22;9598;50.954;3.112;2023-08-17T21:19:04;22.20;99.90
18932;DHT22;9598;50.954;3.112;2023-08-17T21:24:07;22.20;99.90
18932;DHT22;9598;50.954;3.112;2023-08-17T21:29:09;22.20;99.90
18932;DHT22;9598;50.954;3.112;2023-08-17T21:34:12;22.10;99.90
18932;DHT22;9598;50.954;3.112;2023-08-17T21:39:17;22.10;99.90
18932;DHT22;9598;50.954;3.112;2023-08-17T21:44:19;22.10;99.90
18932;DHT22;9598;50.954;3.112;2023-08-17T21:49:24;22.10;99.90
18932;DHT22;9598;50.954;3.112;2023-08-17T21:54:28;22.00;99.90
18932;DHT22;9598;50.954;3.112;2023-08-17T21:59:30;22.00;99.90
18932;DHT22;9598;50.954;3.112;2023-08-17T22:04:32;22.00;99.90
18932;DHT22;9598;50.954;3.112;2023-08-17T22:09:35;22.00;99.90
18932;DHT22;9598;50.954;3.112;2023-08-17T22:14:37;21.90;99.90
18932;DHT22;9598;50.954;3.112;2023-08-17T22:19:39;21.90;99.90
18932;DHT22;9598;50.954;3.112;2023-08-17T22:24:43;21.80;99.90
18932;DHT22;9598;50.954;3.112;2023-08-17T22:29:45;21.80;99.90
18932;DHT22;9598;50.954;3.112;2023-08-17T22:34:47;21.70;99.90
18932;DHT22;9598;50.954;3.112;2023-08-17T22:39:51;21.70;99.90
18932;DHT22;9598;50.954;3.112;2023-08-17T22:44:53;21.60;99.90
18932;DHT22;9598;50.954;3.112;2023-08-17T22:49:55;21.70;99.90
18932;DHT22;9598;50.954;3.112;2023-08-17T22:54:58;21.70;99.90
18932;DHT22;9598;50.954;3.112;2023-08-17T23:00:00;21.70;99.90
18932;DHT22;9598;50.954;3.112;2023-08-17T23:05:05;21.60;99.90
18932;DHT22;9598;50.954;3.112;2023-08-17T23:10:09;21.60;99.90
18932;DHT22;9598;50.954;3.112;2023-08-17T23:15:12;21.60;99.90
18932;DHT22;9598;50.954;3.112;2023-08-17T23:20:14;21.60;99.90
18932;DHT22;9598;50.954;3.112;2023-08-17T23:25:18;21.60;99.90
18932;DHT22;9598;50.954;3.112;2023-08-17T23:30:20;21.60;99.90
18932;DHT22;9598;50.954;3.112;2023-08-17T23:35:22;21.50;99.90
18932;DHT22;9598;50.954;3.112;2023-08-17T23:40:25;21.50;99.90
18932;DHT22;9598;50.954;3.112;2023-08-17T23:45:27;21.50;99.90
18932;DHT22;9598;50.954;3.112;2023-08-17T23:50:29;21.50;99.90
18932;DHT22;9598;50.954;3.112;2023-08-17T23:55:33;21.50;99.90
